^^
Saratoga-Weather Station Historical Data
Daily Summary for January 24, 2022 Units:  Both    English   Metric
Daily Weekly Monthly Yearly Custom
  High: Low: Average:
Temperature: 44.6 °F /  7 °C 30 °F /  -1.1 °C 36.9 °F /  2.7 °C
Dew Point: 37.4 °F /  3 °C 28.6 °F /  -1.9 °C 33.1 °F /  0.6 °C
Humidity: 95% 75% 86%
Wind Speed: 6.9mph /  11.1km/h - 1.1mph /  1.8km/h
Wind Gust: 10mph /  16.1km/h - -
Wind- - East
Pressure: 30.5 in /  1032.8 hPa 30.5 in /  1031.2 hPa -
Precipitation: 0 in /  0.0 mm    
Historical Graphs
 
 
Tabular Data for January 24, 2022
Time Temperature Dew Point Pressure Wind Wind Speed Wind Gust Humidity Rainfall Rate (Hourly) solar
00:02 39.4 °F /  4.1 °C 34.3 °F /  1.3 °C 30.5in /  1032.8hPa ESE 2.9mph /  4.7km/h 4mph /  6.4km/h 82% 0in /  0.0mm 0 W/m2
00:07 39.4 °F /  4.1 °C 34.3 °F /  1.3 °C 30.5in /  1032.8hPa East 6.9mph /  11.1km/h 7mph /  11.3km/h 82% 0in /  0.0mm 0 W/m2
00:12 39.4 °F /  4.1 °C 34.3 °F /  1.3 °C 30.5in /  1032.8hPa ENE 2mph /  3.2km/h 10mph /  16.1km/h 82% 0in /  0.0mm 0 W/m2
00:17 39.4 °F /  4.1 °C 34.3 °F /  1.3 °C 30.5in /  1032.8hPa ENE 2.9mph /  4.7km/h 6mph /  9.7km/h 82% 0in /  0.0mm 0 W/m2
00:22 39.4 °F /  4.1 °C 34.3 °F /  1.3 °C 30.5in /  1032.8hPa East 2.9mph /  4.7km/h 10mph /  16.1km/h 82% 0in /  0.0mm 0 W/m2
00:27 39.4 °F /  4.1 °C 34.3 °F /  1.3 °C 30.5in /  1032.8hPa ESE 2mph /  3.2km/h 6mph /  9.7km/h 82% 0in /  0.0mm 0 W/m2
00:32 39.4 °F /  4.1 °C 34.7 °F /  1.5 °C 30.5in /  1032.8hPa ESE 2.9mph /  4.7km/h 5mph /  8km/h 83% 0in /  0.0mm 0 W/m2
00:37 39.2 °F /  4 °C 34.5 °F /  1.4 °C 30.5in /  1032.8hPa ESE 2mph /  3.2km/h 6mph /  9.7km/h 83% 0in /  0.0mm 0 W/m2
00:42 39.2 °F /  4 °C 34.5 °F /  1.4 °C 30.5in /  1032.8hPa ESE 2mph /  3.2km/h 4mph /  6.4km/h 83% 0in /  0.0mm 0 W/m2
00:47 39.2 °F /  4 °C 34.5 °F /  1.4 °C 30.5in /  1032.8hPa East 2mph /  3.2km/h 4mph /  6.4km/h 83% 0in /  0.0mm 0 W/m2
00:52 39.4 °F /  4.1 °C 34.7 °F /  1.5 °C 30.5in /  1032.8hPa ESE 0.9mph /  1.4km/h 4mph /  6.4km/h 83% 0in /  0.0mm 0 W/m2
00:57 39.4 °F /  4.1 °C 34.7 °F /  1.5 °C 30.5in /  1032.8hPa East 2.9mph /  4.7km/h 5mph /  8km/h 83% 0in /  0.0mm 0 W/m2
01:02 39.4 °F /  4.1 °C 34.7 °F /  1.5 °C 30.5in /  1032.8hPa East 2mph /  3.2km/h 6mph /  9.7km/h 83% 0in /  0.0mm 0 W/m2
01:07 39.6 °F /  4.2 °C 34.9 °F /  1.6 °C 30.5in /  1032.8hPa ESE 6mph /  9.7km/h 8mph /  12.9km/h 83% 0in /  0.0mm 0 W/m2
01:12 39.6 °F /  4.2 °C 34.9 °F /  1.6 °C 30.5in /  1032.8hPa East 4mph /  6.4km/h 6mph /  9.7km/h 83% 0in /  0.0mm 0 W/m2
01:17 39.6 °F /  4.2 °C 34.9 °F /  1.6 °C 30.5in /  1032.8hPa East 2mph /  3.2km/h 4mph /  6.4km/h 83% 0in /  0.0mm 0 W/m2
01:22 39.6 °F /  4.2 °C 34.9 °F /  1.6 °C 30.5in /  1032.8hPa ENE 2mph /  3.2km/h 3mph /  4.8km/h 83% 0in /  0.0mm 0 W/m2
01:27 39.6 °F /  4.2 °C 34.9 °F /  1.6 °C 30.5in /  1032.8hPa East 4mph /  6.4km/h 4mph /  6.4km/h 83% 0in /  0.0mm 0 W/m2
01:32 39.6 °F /  4.2 °C 34.9 °F /  1.6 °C 30.5in /  1032.8hPa ESE 2.9mph /  4.7km/h 4mph /  6.4km/h 83% 0in /  0.0mm 0 W/m2
01:37 39.6 °F /  4.2 °C 34.9 °F /  1.6 °C 30.5in /  1032.5hPa NE 4.9mph /  7.9km/h 7mph /  11.3km/h 83% 0in /  0.0mm 0 W/m2
01:42 39.7 °F /  4.3 °C 35.1 °F /  1.7 °C 30.5in /  1032.8hPa ESE 4.9mph /  7.9km/h 7mph /  11.3km/h 83% 0in /  0.0mm 0 W/m2
01:47 39.7 °F /  4.3 °C 35.1 °F /  1.7 °C 30.5in /  1032.8hPa ESE 4mph /  6.4km/h 4mph /  6.4km/h 83% 0in /  0.0mm 0 W/m2
01:52 39.7 °F /  4.3 °C 35.1 °F /  1.7 °C 30.5in /  1032.8hPa East 2mph /  3.2km/h 4mph /  6.4km/h 83% 0in /  0.0mm 0 W/m2
01:57 39.6 °F /  4.2 °C 34.9 °F /  1.6 °C 30.5in /  1032.8hPa East 4mph /  6.4km/h 9mph /  14.5km/h 83% 0in /  0.0mm 0 W/m2
02:02 39.6 °F /  4.2 °C 34.9 °F /  1.6 °C 30.5in /  1032.8hPa ESE 2.9mph /  4.7km/h 7mph /  11.3km/h 83% 0in /  0.0mm 0 W/m2
02:07 39.6 °F /  4.2 °C 34.9 °F /  1.6 °C 30.5in /  1032.8hPa East 2mph /  3.2km/h 9mph /  14.5km/h 83% 0in /  0.0mm 0 W/m2
02:12 39.6 °F /  4.2 °C 34.9 °F /  1.6 °C 30.5in /  1032.8hPa ESE 2mph /  3.2km/h 6mph /  9.7km/h 83% 0in /  0.0mm 0 W/m2
02:17 39.4 °F /  4.1 °C 34.7 °F /  1.5 °C 30.5in /  1032.5hPa ESE 4mph /  6.4km/h 6mph /  9.7km/h 83% 0in /  0.0mm 0 W/m2
02:22 39.2 °F /  4 °C 34.5 °F /  1.4 °C 30.5in /  1032.5hPa ESE 2mph /  3.2km/h 4mph /  6.4km/h 83% 0in /  0.0mm 0 W/m2
02:27 38.8 °F /  3.8 °C 34.2 °F /  1.2 °C 30.5in /  1032.5hPa East 2mph /  3.2km/h 4mph /  6.4km/h 83% 0in /  0.0mm 0 W/m2
02:32 38.7 °F /  3.7 °C 34.2 °F /  1.2 °C 30.5in /  1032.5hPa SE 0.9mph /  1.4km/h 3mph /  4.8km/h 84% 0in /  0.0mm 0 W/m2
02:37 38.3 °F /  3.5 °C 34 °F /  1.1 °C 30.5in /  1032.5hPa SE 0.9mph /  1.4km/h 4mph /  6.4km/h 84% 0in /  0.0mm 0 W/m2
02:42 37.9 °F /  3.3 °C 33.8 °F /  1 °C 30.5in /  1032.5hPa ESE 0.9mph /  1.4km/h 3mph /  4.8km/h 85% 0in /  0.0mm 0 W/m2
02:47 37.6 °F /  3.1 °C 33.4 °F /  0.8 °C 30.5in /  1032.5hPa ESE 0.9mph /  1.4km/h 2mph /  3.2km/h 85% 0in /  0.0mm 0 W/m2
02:52 37.2 °F /  2.9 °C 33.4 °F /  0.8 °C 30.5in /  1032.5hPa East 2mph /  3.2km/h 2mph /  3.2km/h 86% 0in /  0.0mm 0 W/m2
02:57 37 °F /  2.8 °C 33.3 °F /  0.7 °C 30.5in /  1032.5hPa East 2mph /  3.2km/h 3mph /  4.8km/h 86% 0in /  0.0mm 0 W/m2
03:02 36.7 °F /  2.6 °C 32.9 °F /  0.5 °C 30.5in /  1032.5hPa Calm   2mph /  3.2km/h 86% 0in /  0.0mm 0 W/m2
03:07 36.3 °F /  2.4 °C 32.9 °F /  0.5 °C 30.5in /  1032.5hPa SE 3mph /  4.8km/h 3mph /  4.8km/h 87% 0in /  0.0mm 0 W/m2
03:12 36.1 °F /  2.3 °C 32.7 °F /  0.4 °C 30.5in /  1032.5hPa ESE 2mph /  3.2km/h 2mph /  3.2km/h 87% 0in /  0.0mm 0 W/m2
03:17 35.8 °F /  2.1 °C 32.5 °F /  0.3 °C 30.5in /  1032.5hPa Calm   2mph /  3.2km/h 88% 0in /  0.0mm 0 W/m2
03:22 35.6 °F /  2 °C 32.4 °F /  0.2 °C 30.5in /  1032.5hPa Calm   1mph /  1.6km/h 88% 0in /  0.0mm 0 W/m2
03:27 35.4 °F /  1.9 °C 32.2 °F /  0.1 °C 30.5in /  1032.5hPa Calm   2mph /  3.2km/h 88% 0in /  0.0mm 0 W/m2
03:32 35.1 °F /  1.7 °C 31.8 °F /  -0.1 °C 30.5in /  1032.5hPa Calm   1mph /  1.6km/h 88% 0in /  0.0mm 0 W/m2
03:37 34.9 °F /  1.6 °C 32 °F /  0 °C 30.5in /  1032.2hPa ESE 0.9mph /  1.4km/h 3mph /  4.8km/h 89% 0in /  0.0mm 0 W/m2
03:42 34.7 °F /  1.5 °C 31.8 °F /  -0.1 °C 30.5in /  1032.5hPa ESE 2mph /  3.2km/h 2mph /  3.2km/h 89% 0in /  0.0mm 0 W/m2
03:47 34.5 °F /  1.4 °C 31.8 °F /  -0.1 °C 30.5in /  1032.2hPa ESE 0.9mph /  1.4km/h 3mph /  4.8km/h 90% 0in /  0.0mm 0 W/m2
03:52 34.3 °F /  1.3 °C 31.6 °F /  -0.2 °C 30.5in /  1032.2hPa Calm     90% 0in /  0.0mm 0 W/m2
03:57 34.3 °F /  1.3 °C 31.6 °F /  -0.2 °C 30.5in /  1032.2hPa ESE 0.9mph /  1.4km/h 2mph /  3.2km/h 90% 0in /  0.0mm 0 W/m2
04:02 34.3 °F /  1.3 °C 31.6 °F /  -0.2 °C 30.5in /  1032.2hPa Calm   1mph /  1.6km/h 90% 0in /  0.0mm 0 W/m2
04:07 34.3 °F /  1.3 °C 31.6 °F /  -0.2 °C 30.5in /  1032.2hPa Calm   1mph /  1.6km/h 90% 0in /  0.0mm 0 W/m2
04:12 34.3 °F /  1.3 °C 31.6 °F /  -0.2 °C 30.5in /  1032.2hPa Calm     90% 0in /  0.0mm 0 W/m2
04:17 34.3 °F /  1.3 °C 32 °F /  0 °C 30.5in /  1032.2hPa Calm     91% 0in /  0.0mm 0 W/m2
04:22 34.3 °F /  1.3 °C 32 °F /  0 °C 30.5in /  1032.2hPa East 2mph /  3.2km/h 2mph /  3.2km/h 91% 0in /  0.0mm 0 W/m2
04:27 34.2 °F /  1.2 °C 31.8 °F /  -0.1 °C 30.5in /  1032.2hPa East 0.9mph /  1.4km/h 1mph /  1.6km/h 91% 0in /  0.0mm 0 W/m2
04:32 34.2 °F /  1.2 °C 31.8 °F /  -0.1 °C 30.5in /  1032.2hPa SE 0.9mph /  1.4km/h 2mph /  3.2km/h 91% 0in /  0.0mm 0 W/m2
04:37 34.3 °F /  1.3 °C 32 °F /  0 °C 30.5in /  1031.8hPa ESE 2mph /  3.2km/h 2mph /  3.2km/h 91% 0in /  0.0mm 0 W/m2
04:42 34.3 °F /  1.3 °C 31.6 °F /  -0.2 °C 30.5in /  1031.8hPa Calm   1mph /  1.6km/h 90% 0in /  0.0mm 0 W/m2
04:47 34.3 °F /  1.3 °C 31.6 °F /  -0.2 °C 30.5in /  1031.8hPa Calm   2mph /  3.2km/h 90% 0in /  0.0mm 0 W/m2
04:52 34.3 °F /  1.3 °C 31.6 °F /  -0.2 °C 30.5in /  1031.8hPa Calm     90% 0in /  0.0mm 0 W/m2
04:57 34.2 °F /  1.2 °C 31.5 °F /  -0.3 °C 30.5in /  1031.8hPa Calm     90% 0in /  0.0mm 0 W/m2
05:02 34 °F /  1.1 °C 31.3 °F /  -0.4 °C 30.5in /  1031.8hPa Calm     90% 0in /  0.0mm 0 W/m2
05:07 34 °F /  1.1 °C 31.6 °F /  -0.2 °C 30.5in /  1031.8hPa Calm   1mph /  1.6km/h 91% 0in /  0.0mm 0 W/m2
05:12 33.8 °F /  1 °C 31.5 °F /  -0.3 °C 30.5in /  1031.8hPa East 0.9mph /  1.4km/h 1mph /  1.6km/h 91% 0in /  0.0mm 0 W/m2
05:17 33.8 °F /  1 °C 31.5 °F /  -0.3 °C 30.5in /  1031.8hPa SE 0.9mph /  1.4km/h 2mph /  3.2km/h 91% 0in /  0.0mm 0 W/m2
05:22 33.8 °F /  1 °C 31.5 °F /  -0.3 °C 30.5in /  1031.8hPa Calm   2mph /  3.2km/h 91% 0in /  0.0mm 0 W/m2
05:27 33.8 °F /  1 °C 31.5 °F /  -0.3 °C 30.5in /  1031.8hPa ESE 0.9mph /  1.4km/h 2mph /  3.2km/h 91% 0in /  0.0mm 0 W/m2
05:32 33.8 °F /  1 °C 31.5 °F /  -0.3 °C 30.5in /  1031.8hPa Calm     91% 0in /  0.0mm 0 W/m2
05:37 33.8 °F /  1 °C 31.5 °F /  -0.3 °C 30.5in /  1031.8hPa ESE 0.9mph /  1.4km/h 2mph /  3.2km/h 91% 0in /  0.0mm 0 W/m2
05:42 33.6 °F /  0.9 °C 31.3 °F /  -0.4 °C 30.5in /  1031.8hPa Calm     91% 0in /  0.0mm 0 W/m2
05:47 33.6 °F /  0.9 °C 31.3 °F /  -0.4 °C 30.5in /  1031.8hPa ESE 0.9mph /  1.4km/h 2mph /  3.2km/h 91% 0in /  0.0mm 0 W/m2
05:52 33.6 °F /  0.9 °C 31.3 °F /  -0.4 °C 30.5in /  1031.8hPa ESE 0.9mph /  1.4km/h 3mph /  4.8km/h 91% 0in /  0.0mm 0 W/m2
05:57 33.6 °F /  0.9 °C 31.3 °F /  -0.4 °C 30.5in /  1031.8hPa Calm     91% 0in /  0.0mm 0 W/m2
06:02 33.6 °F /  0.9 °C 31.3 °F /  -0.4 °C 30.5in /  1031.8hPa Calm   3mph /  4.8km/h 91% 0in /  0.0mm 0 W/m2
06:07 33.6 °F /  0.9 °C 31.3 °F /  -0.4 °C 30.5in /  1031.5hPa Calm   2mph /  3.2km/h 91% 0in /  0.0mm 0 W/m2
06:12 33.6 °F /  0.9 °C 31.3 °F /  -0.4 °C 30.5in /  1031.8hPa ESE 0.9mph /  1.4km/h 2mph /  3.2km/h 91% 0in /  0.0mm 0 W/m2
06:17 33.6 °F /  0.9 °C 31.3 °F /  -0.4 °C 30.5in /  1031.8hPa ESE 0.9mph /  1.4km/h 2mph /  3.2km/h 91% 0in /  0.0mm 0 W/m2
06:22 33.4 °F /  0.8 °C 31.1 °F /  -0.5 °C 30.5in /  1031.5hPa ESE 0.9mph /  1.4km/h 2mph /  3.2km/h 91% 0in /  0.0mm 0 W/m2
06:27 33.4 °F /  0.8 °C 31.1 °F /  -0.5 °C 30.5in /  1031.5hPa Calm   1mph /  1.6km/h 91% 0in /  0.0mm 0 W/m2
06:32 33.4 °F /  0.8 °C 31.1 °F /  -0.5 °C 30.5in /  1031.5hPa Calm   1mph /  1.6km/h 91% 0in /  0.0mm 0 W/m2
06:37 33.4 °F /  0.8 °C 31.1 °F /  -0.5 °C 30.5in /  1031.5hPa Calm     91% 0in /  0.0mm 0 W/m2
06:42 33.4 °F /  0.8 °C 31.1 °F /  -0.5 °C 30.5in /  1031.5hPa ESE 0.9mph /  1.4km/h 1mph /  1.6km/h 91% 0in /  0.0mm 0 W/m2
06:47 33.4 °F /  0.8 °C 31.1 °F /  -0.5 °C 30.5in /  1031.5hPa Calm   2mph /  3.2km/h 91% 0in /  0.0mm 0 W/m2
06:52 33.3 °F /  0.7 °C 30.9 °F /  -0.6 °C 30.5in /  1031.5hPa Calm   2mph /  3.2km/h 91% 0in /  0.0mm 0 W/m2
06:57 33.3 °F /  0.7 °C 30.9 °F /  -0.6 °C 30.5in /  1031.5hPa Calm     91% 0in /  0.0mm 0 W/m2
07:02 33.3 °F /  0.7 °C 30.9 °F /  -0.6 °C 30.5in /  1031.5hPa Calm     91% 0in /  0.0mm 0 W/m2
07:07 33.3 °F /  0.7 °C 30.9 °F /  -0.6 °C 30.5in /  1031.5hPa Calm     91% 0in /  0.0mm 0 W/m2
07:12 33.1 °F /  0.6 °C 30.7 °F /  -0.7 °C 30.5in /  1031.5hPa Calm     91% 0in /  0.0mm 0 W/m2
07:22 32.7 °F /  0.4 °C 30.4 °F /  -0.9 °C 30.5in /  1031.5hPa Calm   1mph /  1.6km/h 91% 0in /  0.0mm 0 W/m2
07:27 32.7 °F /  0.4 °C 30.4 °F /  -0.9 °C 30.5in /  1031.5hPa Calm     91% 0in /  0.0mm 0 W/m2
07:32 32.5 °F /  0.3 °C 30.2 °F /  -1 °C 30.5in /  1031.5hPa Calm     91% 0in /  0.0mm 0 W/m2
07:37 32.5 °F /  0.3 °C 30.2 °F /  -1 °C 30.5in /  1031.5hPa Calm     91% 0in /  0.0mm 0 W/m2
07:42 32.4 °F /  0.2 °C 30 °F /  -1.1 °C 30.5in /  1031.5hPa Calm     91% 0in /  0.0mm 0 W/m2
07:47 32.4 °F /  0.2 °C 30.4 °F /  -0.9 °C 30.5in /  1031.8hPa Calm   1mph /  1.6km/h 92% 0in /  0.0mm 0 W/m2
07:52 32.4 °F /  0.2 °C 30.4 °F /  -0.9 °C 30.5in /  1031.5hPa Calm   2mph /  3.2km/h 92% 0in /  0.0mm 0 W/m2
07:57 32.4 °F /  0.2 °C 30.4 °F /  -0.9 °C 30.5in /  1031.8hPa Calm     92% 0in /  0.0mm 0 W/m2
08:02 32.4 °F /  0.2 °C 30.4 °F /  -0.9 °C 30.5in /  1031.8hPa Calm   2mph /  3.2km/h 92% 0in /  0.0mm 0 W/m2
08:07 32.4 °F /  0.2 °C 30.4 °F /  -0.9 °C 30.5in /  1031.8hPa Calm   1mph /  1.6km/h 92% 0in /  0.0mm 0 W/m2
08:12 32.4 °F /  0.2 °C 30.4 °F /  -0.9 °C 30.5in /  1031.8hPa Calm     92% 0in /  0.0mm 0 W/m2
08:18 32.2 °F /  0.1 °C 30.2 °F /  -1 °C 30.5in /  1031.8hPa Calm   1mph /  1.6km/h 92% 0in /  0.0mm 0 W/m2
08:23 32.2 °F /  0.1 °C 30.2 °F /  -1 °C 30.5in /  1031.8hPa Calm     92% 0in /  0.0mm 5 W/m2
08:28 32.2 °F /  0.1 °C 30.2 °F /  -1 °C 30.5in /  1031.8hPa Calm     92% 0in /  0.0mm 7 W/m2
08:33 32.2 °F /  0.1 °C 30.2 °F /  -1 °C 30.5in /  1031.8hPa Calm     92% 0in /  0.0mm 9 W/m2
08:38 32 °F /  0 °C 30 °F /  -1.1 °C 30.5in /  1032.2hPa Calm     92% 0in /  0.0mm 11 W/m2
08:43 32 °F /  0 °C 30 °F /  -1.1 °C 30.5in /  1032.2hPa East 0.9mph /  1.4km/h 2mph /  3.2km/h 92% 0in /  0.0mm 12 W/m2
08:48 32.2 °F /  0.1 °C 30.4 °F /  -0.9 °C 30.5in /  1032.2hPa Calm   1mph /  1.6km/h 93% 0in /  0.0mm 14 W/m2
08:53 32.2 °F /  0.1 °C 30.4 °F /  -0.9 °C 30.5in /  1032.2hPa Calm   2mph /  3.2km/h 93% 0in /  0.0mm 16 W/m2
08:58 32.4 °F /  0.2 °C 30.6 °F /  -0.8 °C 30.5in /  1032.2hPa Calm     93% 0in /  0.0mm 16 W/m2
09:03 32.5 °F /  0.3 °C 30.7 °F /  -0.7 °C 30.5in /  1032.5hPa East 0.9mph /  1.4km/h 2mph /  3.2km/h 93% 0in /  0.0mm 18 W/m2
09:08 32.9 °F /  0.5 °C 31.1 °F /  -0.5 °C 30.5in /  1032.5hPa Calm     93% 0in /  0.0mm 19 W/m2
09:13 33.1 °F /  0.6 °C 31.3 °F /  -0.4 °C 30.5in /  1032.5hPa Calm   2mph /  3.2km/h 93% 0in /  0.0mm 19 W/m2
09:18 33.3 °F /  0.7 °C 31.1 °F /  -0.5 °C 30.5in /  1032.5hPa Calm   1mph /  1.6km/h 92% 0in /  0.0mm 21 W/m2
09:23 33.4 °F /  0.8 °C 31.3 °F /  -0.4 °C 30.5in /  1032.5hPa East 2mph /  3.2km/h 2mph /  3.2km/h 92% 0in /  0.0mm 23 W/m2
09:28 33.6 °F /  0.9 °C 31.5 °F /  -0.3 °C 30.5in /  1032.5hPa Calm   1mph /  1.6km/h 92% 0in /  0.0mm 23 W/m2
09:33 34 °F /  1.1 °C 31.8 °F /  -0.1 °C 30.5in /  1032.5hPa Calm   1mph /  1.6km/h 92% 0in /  0.0mm 25 W/m2
09:43 34.3 °F /  1.3 °C 32 °F /  0 °C 30.5in /  1032.5hPa Calm   1mph /  1.6km/h 91% 0in /  0.0mm 39 W/m2
09:48 34.7 °F /  1.5 °C 32.4 °F /  0.2 °C 30.5in /  1032.5hPa Calm   2mph /  3.2km/h 91% 0in /  0.0mm 30 W/m2
09:53 35.1 °F /  1.7 °C 32.7 °F /  0.4 °C 30.5in /  1032.2hPa Calm   1mph /  1.6km/h 91% 0in /  0.0mm 33 W/m2
10:03 35.4 °F /  1.9 °C 32.7 °F /  0.4 °C 30.5in /  1032.5hPa SE 2mph /  3.2km/h 4mph /  6.4km/h 90% 0in /  0.0mm 37 W/m2
10:08 36 °F /  2.2 °C 33.1 °F /  0.6 °C 30.5in /  1032.5hPa East 0.9mph /  1.4km/h 2mph /  3.2km/h 89% 0in /  0.0mm 32 W/m2
10:13 36.3 °F /  2.4 °C 33.1 °F /  0.6 °C 30.5in /  1032.5hPa Calm   4mph /  6.4km/h 88% 0in /  0.0mm 32 W/m2
10:18 36.5 °F /  2.5 °C 33.3 °F /  0.7 °C 30.5in /  1032.2hPa ENE 4mph /  6.4km/h 4mph /  6.4km/h 88% 0in /  0.0mm 32 W/m2
10:23 36.9 °F /  2.7 °C 33.4 °F /  0.8 °C 30.5in /  1032.2hPa Calm   3mph /  4.8km/h 87% 0in /  0.0mm 39 W/m2
10:28 37 °F /  2.8 °C 33.6 °F /  0.9 °C 30.5in /  1032.5hPa ESE 2mph /  3.2km/h 5mph /  8km/h 87% 0in /  0.0mm 39 W/m2
10:33 37.2 °F /  2.9 °C 33.4 °F /  0.8 °C 30.5in /  1032.5hPa SE 2mph /  3.2km/h 7mph /  11.3km/h 86% 0in /  0.0mm 35 W/m2
10:38 37.6 °F /  3.1 °C 33.8 °F /  1 °C 30.5in /  1032.5hPa NE 4mph /  6.4km/h 4mph /  6.4km/h 86% 0in /  0.0mm 39 W/m2
10:43 37.9 °F /  3.3 °C 33.8 °F /  1 °C 30.5in /  1032.5hPa East 2mph /  3.2km/h 7mph /  11.3km/h 85% 0in /  0.0mm 42 W/m2
10:48 37.9 °F /  3.3 °C 33.8 °F /  1 °C 30.5in /  1032.5hPa NE 2mph /  3.2km/h 4mph /  6.4km/h 85% 0in /  0.0mm 42 W/m2
10:53 38.1 °F /  3.4 °C 34 °F /  1.1 °C 30.5in /  1032.5hPa SSE 0.9mph /  1.4km/h 6mph /  9.7km/h 85% 0in /  0.0mm 40 W/m2
10:58 38.5 °F /  3.6 °C 34.2 °F /  1.2 °C 30.5in /  1032.5hPa East 4mph /  6.4km/h 8mph /  12.9km/h 84% 0in /  0.0mm 39 W/m2
11:03 38.7 °F /  3.7 °C 34.2 °F /  1.2 °C 30.5in /  1032.5hPa East 4mph /  6.4km/h 4mph /  6.4km/h 84% 0in /  0.0mm 42 W/m2
11:08 38.8 °F /  3.8 °C 34.3 °F /  1.3 °C 30.5in /  1032.5hPa ESE 2.9mph /  4.7km/h 7mph /  11.3km/h 84% 0in /  0.0mm 44 W/m2
11:13 38.8 °F /  3.8 °C 34.2 °F /  1.2 °C 30.5in /  1032.5hPa ENE 2.9mph /  4.7km/h 5mph /  8km/h 83% 0in /  0.0mm 76 W/m2
11:18 39 °F /  3.9 °C 34.3 °F /  1.3 °C 30.5in /  1032.5hPa SSE 0.9mph /  1.4km/h 2mph /  3.2km/h 83% 0in /  0.0mm 81 W/m2
11:23 39.4 °F /  4.1 °C 34.7 °F /  1.5 °C 30.5in /  1032.5hPa East 2.9mph /  4.7km/h 3mph /  4.8km/h 83% 0in /  0.0mm 39 W/m2
11:28 39.6 °F /  4.2 °C 34.9 °F /  1.6 °C 30.5in /  1032.5hPa East 2.9mph /  4.7km/h 5mph /  8km/h 83% 0in /  0.0mm 107 W/m2
11:33 39.7 °F /  4.3 °C 34.7 °F /  1.5 °C 30.5in /  1032.5hPa East 2mph /  3.2km/h 5mph /  8km/h 82% 0in /  0.0mm 105 W/m2
11:38 39.9 °F /  4.4 °C 34.9 °F /  1.6 °C 30.5in /  1032.5hPa East 0.9mph /  1.4km/h 3mph /  4.8km/h 82% 0in /  0.0mm 37 W/m2
11:43 40.1 °F /  4.5 °C 34.7 °F /  1.5 °C 30.5in /  1032.5hPa NNE 4.9mph /  7.9km/h 5mph /  8km/h 81% 0in /  0.0mm 42 W/m2
11:48 40.3 °F /  4.6 °C 34.9 °F /  1.6 °C 30.5in /  1032.5hPa ENE 2.9mph /  4.7km/h 7mph /  11.3km/h 81% 0in /  0.0mm 76 W/m2
11:53 40.5 °F /  4.7 °C 35.1 °F /  1.7 °C 30.5in /  1032.5hPa ENE 0.9mph /  1.4km/h   81% 0in /  0.0mm 53 W/m2
11:58 40.6 °F /  4.8 °C 35.2 °F /  1.8 °C 30.5in /  1032.2hPa East 2mph /  3.2km/h 5mph /  8km/h 81% 0in /  0.0mm 42 W/m2
12:03 40.6 °F /  4.8 °C 35.2 °F /  1.8 °C 30.5in /  1032.2hPa ENE 6mph /  9.7km/h 6mph /  9.7km/h 81% 0in /  0.0mm 40 W/m2
12:08 40.8 °F /  4.9 °C 35.1 °F /  1.7 °C 30.5in /  1032.2hPa North 2.9mph /  4.7km/h 8mph /  12.9km/h 80% 0in /  0.0mm 47 W/m2
12:13 40.8 °F /  4.9 °C 35.1 °F /  1.7 °C 30.5in /  1032.2hPa NE 2mph /  3.2km/h 4mph /  6.4km/h 80% 0in /  0.0mm 40 W/m2
12:18 41.2 °F /  5.1 °C 35.4 °F /  1.9 °C 30.5in /  1032.2hPa ESE 2.9mph /  4.7km/h 6mph /  9.7km/h 80% 0in /  0.0mm 98 W/m2
12:23 41.4 °F /  5.2 °C 35.6 °F /  2 °C 30.5in /  1032.2hPa East 2.9mph /  4.7km/h 3mph /  4.8km/h 80% 0in /  0.0mm 70 W/m2
12:28 41.4 °F /  5.2 °C 35.4 °F /  1.9 °C 30.5in /  1032.2hPa East 0.9mph /  1.4km/h 4mph /  6.4km/h 79% 0in /  0.0mm 121 W/m2
12:33 41.5 °F /  5.3 °C 35.6 °F /  2 °C 30.5in /  1031.8hPa ESE 2.9mph /  4.7km/h 6mph /  9.7km/h 79% 0in /  0.0mm 54 W/m2
12:38 41.7 °F /  5.4 °C 35.8 °F /  2.1 °C 30.5in /  1031.8hPa East 2.9mph /  4.7km/h 4mph /  6.4km/h 79% 0in /  0.0mm 53 W/m2
12:43 41.7 °F /  5.4 °C 35.8 °F /  2.1 °C 30.5in /  1031.8hPa ESE 2mph /  3.2km/h 6mph /  9.7km/h 79% 0in /  0.0mm 107 W/m2
12:48 41.9 °F /  5.5 °C 35.8 °F /  2.1 °C 30.5in /  1031.8hPa SE 2mph /  3.2km/h 5mph /  8km/h 79% 0in /  0.0mm 44 W/m2
12:53 42.3 °F /  5.7 °C 36 °F /  2.2 °C 30.5in /  1031.8hPa SE 6.9mph /  11.1km/h 7mph /  11.3km/h 78% 0in /  0.0mm 37 W/m2
12:58 42.3 °F /  5.7 °C 36 °F /  2.2 °C 30.5in /  1031.8hPa East 2.9mph /  4.7km/h 5mph /  8km/h 78% 0in /  0.0mm 39 W/m2
13:03 42.4 °F /  5.8 °C 36.1 °F /  2.3 °C 30.5in /  1031.8hPa ESE 2.9mph /  4.7km/h 4mph /  6.4km/h 78% 0in /  0.0mm 58 W/m2
13:08 42.4 °F /  5.8 °C 36.1 °F /  2.3 °C 30.5in /  1031.8hPa SE 2mph /  3.2km/h 4mph /  6.4km/h 78% 0in /  0.0mm 54 W/m2
13:13 42.6 °F /  5.9 °C 36 °F /  2.2 °C 30.5in /  1031.8hPa East 0.9mph /  1.4km/h 4mph /  6.4km/h 77% 0in /  0.0mm 44 W/m2
13:18 42.6 °F /  5.9 °C 36 °F /  2.2 °C 30.5in /  1031.8hPa East 2mph /  3.2km/h 6mph /  9.7km/h 77% 0in /  0.0mm 40 W/m2
13:23 42.8 °F /  6 °C 36.1 °F /  2.3 °C 30.5in /  1031.5hPa ESE 2.9mph /  4.7km/h 4mph /  6.4km/h 77% 0in /  0.0mm 37 W/m2
13:28 43 °F /  6.1 °C 36.3 °F /  2.4 °C 30.5in /  1031.5hPa East 2.9mph /  4.7km/h 4mph /  6.4km/h 77% 0in /  0.0mm 37 W/m2
13:33 43.2 °F /  6.2 °C 36.5 °F /  2.5 °C 30.5in /  1031.5hPa ESE 2mph /  3.2km/h 4mph /  6.4km/h 77% 0in /  0.0mm 49 W/m2
13:38 43.3 °F /  6.3 °C 36.7 °F /  2.6 °C 30.5in /  1031.5hPa East 2.9mph /  4.7km/h 4mph /  6.4km/h 77% 0in /  0.0mm 76 W/m2
13:43 43.3 °F /  6.3 °C 36.7 °F /  2.6 °C 30.5in /  1031.5hPa SE 0.9mph /  1.4km/h 4mph /  6.4km/h 77% 0in /  0.0mm 33 W/m2
13:48 43.3 °F /  6.3 °C 36.7 °F /  2.6 °C 30.5in /  1031.5hPa ESE 0.9mph /  1.4km/h 4mph /  6.4km/h 77% 0in /  0.0mm 33 W/m2
13:53 43.3 °F /  6.3 °C 36.7 °F /  2.6 °C 30.5in /  1031.5hPa ESE 2.9mph /  4.7km/h 10mph /  16.1km/h 77% 0in /  0.0mm 53 W/m2
13:58 43.3 °F /  6.3 °C 36.3 °F /  2.4 °C 30.5in /  1031.5hPa NE 2mph /  3.2km/h 3mph /  4.8km/h 76% 0in /  0.0mm 54 W/m2
14:03 43.5 °F /  6.4 °C 36.5 °F /  2.5 °C 30.5in /  1031.5hPa SE 4mph /  6.4km/h 10mph /  16.1km/h 76% 0in /  0.0mm 44 W/m2
14:08 43.5 °F /  6.4 °C 36.1 °F /  2.3 °C 30.5in /  1031.5hPa East 0.9mph /  1.4km/h 7mph /  11.3km/h 75% 0in /  0.0mm 39 W/m2
14:13 43.7 °F /  6.5 °C 36.7 °F /  2.6 °C 30.5in /  1031.5hPa SE 4mph /  6.4km/h 4mph /  6.4km/h 76% 0in /  0.0mm 40 W/m2
14:18 43.9 °F /  6.6 °C 36.5 °F /  2.5 °C 30.5in /  1031.2hPa ENE 4mph /  6.4km/h 4mph /  6.4km/h 75% 0in /  0.0mm 54 W/m2
14:23 43.9 °F /  6.6 °C 36.9 °F /  2.7 °C 30.5in /  1031.2hPa Calm   1mph /  1.6km/h 76% 0in /  0.0mm 39 W/m2
14:28 43.9 °F /  6.6 °C 36.9 °F /  2.7 °C 30.5in /  1031.2hPa ESE 0.9mph /  1.4km/h 4mph /  6.4km/h 76% 0in /  0.0mm 33 W/m2
14:33 44.1 °F /  6.7 °C 37 °F /  2.8 °C 30.5in /  1031.2hPa SE 2.9mph /  4.7km/h 3mph /  4.8km/h 76% 0in /  0.0mm 32 W/m2
14:38 44.2 °F /  6.8 °C 37.2 °F /  2.9 °C 30.5in /  1031.5hPa ESE 2mph /  3.2km/h 4mph /  6.4km/h 76% 0in /  0.0mm 35 W/m2
14:43 44.2 °F /  6.8 °C 36.9 °F /  2.7 °C 30.5in /  1031.2hPa SE 0.9mph /  1.4km/h 3mph /  4.8km/h 75% 0in /  0.0mm 35 W/m2
14:48 44.4 °F /  6.9 °C 37.4 °F /  3 °C 30.5in /  1031.2hPa ESE 2mph /  3.2km/h 5mph /  8km/h 76% 0in /  0.0mm 33 W/m2
14:53 44.4 °F /  6.9 °C 37 °F /  2.8 °C 30.5in /  1031.2hPa ESE 0.9mph /  1.4km/h 3mph /  4.8km/h 75% 0in /  0.0mm 33 W/m2
14:58 44.6 °F /  7 °C 37.2 °F /  2.9 °C 30.5in /  1031.5hPa East 2.9mph /  4.7km/h 7mph /  11.3km/h 75% 0in /  0.0mm 32 W/m2
15:03 44.4 °F /  6.9 °C 37 °F /  2.8 °C 30.5in /  1031.5hPa East 4mph /  6.4km/h 6mph /  9.7km/h 75% 0in /  0.0mm 32 W/m2
15:08 44.4 °F /  6.9 °C 37.4 °F /  3 °C 30.5in /  1031.5hPa SE 2mph /  3.2km/h 3mph /  4.8km/h 76% 0in /  0.0mm 30 W/m2
15:13 44.4 °F /  6.9 °C 37 °F /  2.8 °C 30.5in /  1031.5hPa Calm   4mph /  6.4km/h 75% 0in /  0.0mm 30 W/m2
15:18 44.4 °F /  6.9 °C 37.4 °F /  3 °C 30.5in /  1031.5hPa ESE 2.9mph /  4.7km/h 4mph /  6.4km/h 76% 0in /  0.0mm 30 W/m2
15:23 44.2 °F /  6.8 °C 37.2 °F /  2.9 °C 30.5in /  1031.5hPa Calm   4mph /  6.4km/h 76% 0in /  0.0mm 28 W/m2
15:28 44.1 °F /  6.7 °C 37 °F /  2.8 °C 30.5in /  1031.5hPa ESE 2mph /  3.2km/h 4mph /  6.4km/h 76% 0in /  0.0mm 28 W/m2
15:33 44.1 °F /  6.7 °C 37 °F /  2.8 °C 30.5in /  1031.5hPa Calm   4mph /  6.4km/h 76% 0in /  0.0mm 28 W/m2
15:38 43.9 °F /  6.6 °C 36.9 °F /  2.7 °C 30.5in /  1031.5hPa ESE 2mph /  3.2km/h 6mph /  9.7km/h 76% 0in /  0.0mm 26 W/m2
15:43 43.7 °F /  6.5 °C 36.7 °F /  2.6 °C 30.5in /  1031.5hPa East 2.9mph /  4.7km/h 6mph /  9.7km/h 76% 0in /  0.0mm 26 W/m2
15:48 43.5 °F /  6.4 °C 36.9 °F /  2.7 °C 30.5in /  1031.5hPa ESE 2mph /  3.2km/h 7mph /  11.3km/h 77% 0in /  0.0mm 25 W/m2
15:53 43.5 °F /  6.4 °C 36.9 °F /  2.7 °C 30.5in /  1031.5hPa ENE 2.9mph /  4.7km/h 6mph /  9.7km/h 77% 0in /  0.0mm 25 W/m2
15:59 43.3 °F /  6.3 °C 36.7 °F /  2.6 °C 30.5in /  1031.5hPa ESE 2mph /  3.2km/h 7mph /  11.3km/h 77% 0in /  0.0mm 23 W/m2
16:04 43.3 °F /  6.3 °C 36.7 °F /  2.6 °C 30.5in /  1031.2hPa Calm   2mph /  3.2km/h 77% 0in /  0.0mm 23 W/m2
16:09 43.2 °F /  6.2 °C 36.7 °F /  2.6 °C 30.5in /  1031.5hPa East 4mph /  6.4km/h 8mph /  12.9km/h 78% 0in /  0.0mm 23 W/m2
16:14 43.2 °F /  6.2 °C 36.7 °F /  2.6 °C 30.5in /  1031.5hPa East 0.9mph /  1.4km/h 6mph /  9.7km/h 78% 0in /  0.0mm 21 W/m2
16:19 43 °F /  6.1 °C 36.7 °F /  2.6 °C 30.5in /  1031.5hPa East 0.9mph /  1.4km/h 5mph /  8km/h 78% 0in /  0.0mm 21 W/m2
16:24 43 °F /  6.1 °C 36.7 °F /  2.6 °C 30.5in /  1031.2hPa ENE 2.9mph /  4.7km/h 4mph /  6.4km/h 78% 0in /  0.0mm 19 W/m2
16:29 42.6 °F /  5.9 °C 36.3 °F /  2.4 °C 30.5in /  1031.2hPa East 0.9mph /  1.4km/h 4mph /  6.4km/h 78% 0in /  0.0mm 18 W/m2
16:34 42.4 °F /  5.8 °C 36.3 °F /  2.4 °C 30.5in /  1031.2hPa East 0.9mph /  1.4km/h 4mph /  6.4km/h 79% 0in /  0.0mm 18 W/m2
16:39 42.3 °F /  5.7 °C 36.1 °F /  2.3 °C 30.5in /  1031.5hPa ESE 4mph /  6.4km/h 4mph /  6.4km/h 79% 0in /  0.0mm 16 W/m2
16:44 42.3 °F /  5.7 °C 36.1 °F /  2.3 °C 30.5in /  1031.5hPa ESE 0.9mph /  1.4km/h 4mph /  6.4km/h 79% 0in /  0.0mm 14 W/m2
16:49 42.1 °F /  5.6 °C 36.3 °F /  2.4 °C 30.5in /  1031.5hPa ESE 2mph /  3.2km/h 4mph /  6.4km/h 80% 0in /  0.0mm 14 W/m2
16:54 41.9 °F /  5.5 °C 36.1 °F /  2.3 °C 30.5in /  1031.5hPa East 2mph /  3.2km/h 3mph /  4.8km/h 80% 0in /  0.0mm 12 W/m2
17:04 41.4 °F /  5.2 °C 36 °F /  2.2 °C 30.5in /  1031.5hPa Calm     81% 0in /  0.0mm 9 W/m2
17:09 40.8 °F /  4.9 °C 35.4 °F /  1.9 °C 30.5in /  1031.5hPa East 2mph /  3.2km/h 3mph /  4.8km/h 81% 0in /  0.0mm 7 W/m2
17:14 40.6 °F /  4.8 °C 35.6 °F /  2 °C 30.5in /  1031.5hPa East 4mph /  6.4km/h 6mph /  9.7km/h 82% 0in /  0.0mm 5 W/m2
17:19 40.6 °F /  4.8 °C 35.6 °F /  2 °C 30.5in /  1031.5hPa ESE 0.9mph /  1.4km/h 6mph /  9.7km/h 82% 0in /  0.0mm 5 W/m2
17:24 40.6 °F /  4.8 °C 35.6 °F /  2 °C 30.5in /  1031.8hPa Calm   2mph /  3.2km/h 82% 0in /  0.0mm 0 W/m2
17:29 40.5 °F /  4.7 °C 35.4 °F /  1.9 °C 30.5in /  1031.8hPa Calm   6mph /  9.7km/h 82% 0in /  0.0mm 0 W/m2
17:34 39.9 °F /  4.4 °C 35.2 °F /  1.8 °C 30.5in /  1031.8hPa Calm     83% 0in /  0.0mm 0 W/m2
17:39 39.6 °F /  4.2 °C 34.9 °F /  1.6 °C 30.5in /  1031.8hPa Calm   2mph /  3.2km/h 83% 0in /  0.0mm 0 W/m2
17:44 39.4 °F /  4.1 °C 34.9 °F /  1.6 °C 30.5in /  1031.8hPa Calm     84% 0in /  0.0mm 0 W/m2
17:49 39 °F /  3.9 °C 34.5 °F /  1.4 °C 30.5in /  1031.8hPa Calm     84% 0in /  0.0mm 0 W/m2
17:54 38.7 °F /  3.7 °C 34.5 °F /  1.4 °C 30.5in /  1031.8hPa ESE 0.9mph /  1.4km/h 2mph /  3.2km/h 85% 0in /  0.0mm 0 W/m2
17:59 38.5 °F /  3.6 °C 34.7 °F /  1.5 °C 30.5in /  1031.8hPa Calm   2mph /  3.2km/h 86% 0in /  0.0mm 0 W/m2
18:04 38.3 °F /  3.5 °C 34.5 °F /  1.4 °C 30.5in /  1031.8hPa Calm     86% 0in /  0.0mm 0 W/m2
18:09 38.1 °F /  3.4 °C 34.3 °F /  1.3 °C 30.5in /  1031.8hPa Calm   2mph /  3.2km/h 86% 0in /  0.0mm 0 W/m2
18:14 37.9 °F /  3.3 °C 34.2 °F /  1.2 °C 30.5in /  1031.8hPa Calm     86% 0in /  0.0mm 0 W/m2
18:19 37.8 °F /  3.2 °C 34.2 °F /  1.2 °C 30.5in /  1031.8hPa Calm   1mph /  1.6km/h 87% 0in /  0.0mm 0 W/m2
18:24 37.6 °F /  3.1 °C 34 °F /  1.1 °C 30.5in /  1031.8hPa Calm     87% 0in /  0.0mm 0 W/m2
18:29 37.2 °F /  2.9 °C 33.8 °F /  1 °C 30.5in /  1031.8hPa Calm   1mph /  1.6km/h 87% 0in /  0.0mm 0 W/m2
18:34 37 °F /  2.8 °C 33.6 °F /  0.9 °C 30.5in /  1031.8hPa Calm     87% 0in /  0.0mm 0 W/m2
18:39 36.9 °F /  2.7 °C 33.4 °F /  0.8 °C 30.5in /  1031.8hPa Calm     87% 0in /  0.0mm 0 W/m2
18:44 36.5 °F /  2.5 °C 33.3 °F /  0.7 °C 30.5in /  1031.8hPa Calm     88% 0in /  0.0mm 0 W/m2
18:49 36.1 °F /  2.3 °C 32.9 °F /  0.5 °C 30.5in /  1031.8hPa Calm     88% 0in /  0.0mm 0 W/m2
18:54 36 °F /  2.2 °C 32.7 °F /  0.4 °C 30.5in /  1031.8hPa Calm     88% 0in /  0.0mm 0 W/m2
18:59 35.6 °F /  2 °C 32.4 °F /  0.2 °C 30.5in /  1031.8hPa Calm     88% 0in /  0.0mm 0 W/m2
19:04 35.2 °F /  1.8 °C 32.4 °F /  0.2 °C 30.5in /  1032.2hPa Calm     89% 0in /  0.0mm 0 W/m2
19:09 35.1 °F /  1.7 °C 32.2 °F /  0.1 °C 30.5in /  1032.2hPa Calm     89% 0in /  0.0mm 0 W/m2
19:14 34.9 °F /  1.6 °C 32 °F /  0 °C 30.5in /  1032.2hPa Calm     89% 0in /  0.0mm 0 W/m2
19:19 34.5 °F /  1.4 °C 31.6 °F /  -0.2 °C 30.5in /  1032.2hPa Calm     89% 0in /  0.0mm 0 W/m2
19:24 34.3 °F /  1.3 °C 31.6 °F /  -0.2 °C 30.5in /  1032.2hPa Calm     90% 0in /  0.0mm 0 W/m2
19:29 34.2 °F /  1.2 °C 31.5 °F /  -0.3 °C 30.5in /  1032.5hPa Calm     90% 0in /  0.0mm 0 W/m2
19:34 34 °F /  1.1 °C 31.3 °F /  -0.4 °C 30.5in /  1032.5hPa Calm     90% 0in /  0.0mm 0 W/m2
19:39 33.6 °F /  0.9 °C 31.3 °F /  -0.4 °C 30.5in /  1032.5hPa Calm     91% 0in /  0.0mm 0 W/m2
19:44 33.4 °F /  0.8 °C 31.1 °F /  -0.5 °C 30.5in /  1032.5hPa Calm     91% 0in /  0.0mm 0 W/m2
19:49 33.3 °F /  0.7 °C 30.9 °F /  -0.6 °C 30.5in /  1032.2hPa Calm     91% 0in /  0.0mm 0 W/m2
19:54 33.3 °F /  0.7 °C 30.9 °F /  -0.6 °C 30.5in /  1032.5hPa Calm     91% 0in /  0.0mm 0 W/m2
19:59 33.1 °F /  0.6 °C 31.1 °F /  -0.5 °C 30.5in /  1032.5hPa Calm     92% 0in /  0.0mm 0 W/m2
20:04 33.1 °F /  0.6 °C 31.1 °F /  -0.5 °C 30.5in /  1032.5hPa Calm     92% 0in /  0.0mm 0 W/m2
20:09 33.1 °F /  0.6 °C 31.1 °F /  -0.5 °C 30.5in /  1032.5hPa Calm     92% 0in /  0.0mm 0 W/m2
20:14 32.9 °F /  0.5 °C 30.9 °F /  -0.6 °C 30.5in /  1032.5hPa Calm     92% 0in /  0.0mm 0 W/m2
20:19 32.9 °F /  0.5 °C 30.9 °F /  -0.6 °C 30.5in /  1032.5hPa ENE 0.9mph /  1.4km/h 2mph /  3.2km/h 92% 0in /  0.0mm 0 W/m2
20:24 33.1 °F /  0.6 °C 31.3 °F /  -0.4 °C 30.5in /  1032.2hPa Calm   1mph /  1.6km/h 93% 0in /  0.0mm 0 W/m2
20:29 33.3 °F /  0.7 °C 31.5 °F /  -0.3 °C 30.5in /  1032.2hPa Calm     93% 0in /  0.0mm 0 W/m2
20:34 33.3 °F /  0.7 °C 31.5 °F /  -0.3 °C 30.5in /  1032.5hPa Calm   1mph /  1.6km/h 93% 0in /  0.0mm 0 W/m2
20:39 33.1 °F /  0.6 °C 31.1 °F /  -0.5 °C 30.5in /  1032.5hPa Calm     92% 0in /  0.0mm 0 W/m2
20:44 32.7 °F /  0.4 °C 30.7 °F /  -0.7 °C 30.5in /  1032.5hPa Calm     92% 0in /  0.0mm 0 W/m2
20:49 32.5 °F /  0.3 °C 30.6 °F /  -0.8 °C 30.5in /  1032.5hPa Calm     92% 0in /  0.0mm 0 W/m2
20:54 32.4 °F /  0.2 °C 30.4 °F /  -0.9 °C 30.5in /  1032.5hPa Calm     92% 0in /  0.0mm 0 W/m2
20:59 32.4 °F /  0.2 °C 30.4 °F /  -0.9 °C 30.5in /  1032.5hPa Calm     92% 0in /  0.0mm 0 W/m2
21:04 32.2 °F /  0.1 °C 30.4 °F /  -0.9 °C 30.5in /  1032.5hPa Calm     93% 0in /  0.0mm 0 W/m2
21:09 32 °F /  0 °C 30.2 °F /  -1 °C 30.5in /  1032.5hPa Calm     93% 0in /  0.0mm 0 W/m2
21:14 31.8 °F /  -0.1 °C 30 °F /  -1.1 °C 30.5in /  1032.8hPa Calm     93% 0in /  0.0mm 0 W/m2
21:19 31.8 °F /  -0.1 °C 30 °F /  -1.1 °C 30.5in /  1032.8hPa Calm     93% 0in /  0.0mm 0 W/m2
21:24 31.8 °F /  -0.1 °C 30 °F /  -1.1 °C 30.5in /  1032.8hPa Calm     93% 0in /  0.0mm 0 W/m2
21:29 31.8 °F /  -0.1 °C 30 °F /  -1.1 °C 30.5in /  1032.8hPa Calm     93% 0in /  0.0mm 0 W/m2
21:34 31.6 °F /  -0.2 °C 29.8 °F /  -1.2 °C 30.5in /  1032.8hPa Calm     93% 0in /  0.0mm 0 W/m2
21:39 31.6 °F /  -0.2 °C 29.8 °F /  -1.2 °C 30.5in /  1032.8hPa Calm     93% 0in /  0.0mm 0 W/m2
21:44 31.6 °F /  -0.2 °C 29.8 °F /  -1.2 °C 30.5in /  1032.8hPa Calm     93% 0in /  0.0mm 0 W/m2
21:49 31.6 °F /  -0.2 °C 29.8 °F /  -1.2 °C 30.5in /  1032.8hPa Calm     93% 0in /  0.0mm 0 W/m2
21:54 31.6 °F /  -0.2 °C 30.2 °F /  -1 °C 30.5in /  1032.8hPa Calm     94% 0in /  0.0mm 0 W/m2
21:59 31.6 °F /  -0.2 °C 30.2 °F /  -1 °C 30.5in /  1032.8hPa Calm     94% 0in /  0.0mm 0 W/m2
22:04 31.5 °F /  -0.3 °C 30 °F /  -1.1 °C 30.5in /  1032.8hPa East 0.9mph /  1.4km/h 1mph /  1.6km/h 94% 0in /  0.0mm 0 W/m2
22:09 31.5 °F /  -0.3 °C 30 °F /  -1.1 °C 30.5in /  1032.8hPa Calm   1mph /  1.6km/h 94% 0in /  0.0mm 0 W/m2
22:14 31.5 °F /  -0.3 °C 30 °F /  -1.1 °C 30.5in /  1032.8hPa Calm     94% 0in /  0.0mm 0 W/m2
22:19 31.5 °F /  -0.3 °C 30 °F /  -1.1 °C 30.5in /  1032.8hPa Calm     94% 0in /  0.0mm 0 W/m2
22:24 31.5 °F /  -0.3 °C 30 °F /  -1.1 °C 30.5in /  1032.8hPa Calm     94% 0in /  0.0mm 0 W/m2
22:29 31.5 °F /  -0.3 °C 30 °F /  -1.1 °C 30.5in /  1032.8hPa Calm     94% 0in /  0.0mm 0 W/m2
22:34 31.5 °F /  -0.3 °C 30 °F /  -1.1 °C 30.5in /  1032.8hPa Calm     94% 0in /  0.0mm 0 W/m2
22:39 31.3 °F /  -0.4 °C 29.8 °F /  -1.2 °C 30.5in /  1032.8hPa Calm     94% 0in /  0.0mm 0 W/m2
22:44 31.3 °F /  -0.4 °C 29.8 °F /  -1.2 °C 30.5in /  1032.8hPa Calm     94% 0in /  0.0mm 0 W/m2
22:49 31.1 °F /  -0.5 °C 29.7 °F /  -1.3 °C 30.5in /  1032.8hPa Calm     94% 0in /  0.0mm 0 W/m2
22:54 30.9 °F /  -0.6 °C 29.5 °F /  -1.4 °C 30.5in /  1032.8hPa Calm     94% 0in /  0.0mm 0 W/m2
22:59 30.9 °F /  -0.6 °C 29.5 °F /  -1.4 °C 30.5in /  1032.5hPa Calm     94% 0in /  0.0mm 0 W/m2
23:04 30.7 °F /  -0.7 °C 29.3 °F /  -1.5 °C 30.5in /  1032.5hPa Calm     94% 0in /  0.0mm 0 W/m2
23:09 30.7 °F /  -0.7 °C 29.3 °F /  -1.5 °C 30.5in /  1032.8hPa Calm     94% 0in /  0.0mm 0 W/m2
23:14 30.6 °F /  -0.8 °C 29.1 °F /  -1.6 °C 30.5in /  1032.5hPa Calm     94% 0in /  0.0mm 0 W/m2
23:19 30.7 °F /  -0.7 °C 29.3 °F /  -1.5 °C 30.5in /  1032.5hPa Calm     94% 0in /  0.0mm 0 W/m2
23:24 30.6 °F /  -0.8 °C 29.1 °F /  -1.6 °C 30.5in /  1032.5hPa Calm     94% 0in /  0.0mm 0 W/m2
23:29 30.6 °F /  -0.8 °C 29.1 °F /  -1.6 °C 30.5in /  1032.5hPa Calm     94% 0in /  0.0mm 0 W/m2
23:34 30.4 °F /  -0.9 °C 28.9 °F /  -1.7 °C 30.5in /  1032.5hPa Calm     94% 0in /  0.0mm 0 W/m2
23:39 30.2 °F /  -1 °C 28.8 °F /  -1.8 °C 30.5in /  1032.8hPa Calm     94% 0in /  0.0mm 0 W/m2
23:44 30 °F /  -1.1 °C 28.6 °F /  -1.9 °C 30.5in /  1032.8hPa Calm     94% 0in /  0.0mm 0 W/m2
23:49 30 °F /  -1.1 °C 28.6 °F /  -1.9 °C 30.5in /  1032.8hPa Calm     94% 0in /  0.0mm 0 W/m2
23:54 30 °F /  -1.1 °C 28.8 °F /  -1.8 °C 30.5in /  1032.8hPa Calm     95% 0in /  0.0mm 0 W/m2
23:59 30.4 °F /  -0.9 °C 29.1 °F /  -1.6 °C 30.5in /  1032.8hPa Calm     95% 0in /  0.0mm 0 W/m2
Juneau County Weather
Compliments of Weather Underground - 4 mb